createdAt,value
2023-04-08T00:01:10.010Z,64.28
2023-04-08T00:03:37.431Z,64.30
2023-04-08T00:06:05.080Z,67.72
2023-04-08T00:08:32.380Z,68.60
2023-04-08T00:11:00.753Z,66.25
2023-04-08T00:13:28.185Z,70.75
2023-04-08T00:15:55.573Z,64.88
2023-04-08T00:18:24.004Z,64.22
2023-04-08T00:20:51.673Z,67.40
2023-04-08T00:23:20.253Z,64.55
2023-04-08T00:25:47.691Z,67.15
2023-04-08T00:28:15.048Z,80.00
2023-04-08T00:30:48.445Z,78.65
2023-04-08T00:33:16.896Z,74.68
2023-04-08T00:35:44.346Z,69.30
2023-04-08T00:38:11.872Z,70.97
2023-04-08T00:40:39.433Z,68.93
2023-04-08T00:43:07.098Z,71.00
2023-04-08T00:45:34.603Z,68.88
2023-04-08T00:48:03.762Z,68.13
2023-04-08T00:50:31.654Z,75.38
2023-04-08T00:52:59.209Z,72.32
2023-04-08T00:55:26.763Z,70.28
2023-04-08T00:57:54.277Z,68.90
2023-04-08T01:00:21.653Z,76.32
2023-04-08T01:03:12.040Z,74.43
2023-04-08T01:06:11.761Z,63.15
2023-04-08T01:08:42.571Z,57.78
2023-04-08T01:11:14.065Z,66.38
2023-04-08T01:13:43.644Z,67.97
2023-04-08T01:16:14.662Z,69.63
2023-04-08T01:18:45.371Z,65.30
2023-04-08T01:21:13.387Z,66.50
2023-04-08T01:24:11.820Z,65.78
2023-04-08T01:26:45.914Z,66.70
2023-04-08T01:29:21.622Z,66.05
2023-04-08T01:31:52.250Z,63.22
2023-04-08T01:34:21.516Z,58.25
2023-04-08T01:36:50.269Z,54.65
2023-04-08T01:39:19.661Z,55.90
2023-04-08T01:41:48.063Z,59.00
2023-04-08T01:44:17.372Z,55.42
2023-04-08T01:46:44.988Z,54.22
2023-04-08T01:49:12.801Z,54.03
2023-04-08T01:51:41.487Z,52.40
2023-04-08T01:54:08.776Z,56.30
2023-04-08T01:56:39.819Z,53.03
2023-04-08T01:59:12.427Z,54.00
2023-04-08T02:01:44.926Z,50.47
2023-04-08T02:04:14.067Z,56.10
2023-04-08T02:06:41.770Z,55.08
2023-04-08T02:09:08.873Z,54.58
2023-04-08T02:11:36.353Z,50.45
2023-04-08T02:14:04.928Z,53.13
2023-04-08T02:16:43.810Z,50.70
2023-04-08T02:19:51.876Z,49.08
2023-04-08T02:22:51.074Z,48.35
2023-04-08T02:25:23.572Z,50.45
2023-04-08T02:27:56.385Z,51.17
2023-04-08T02:30:28.177Z,51.25
2023-04-08T02:32:57.428Z,51.97
2023-04-08T02:35:25.389Z,50.22
2023-04-08T02:37:52.941Z,54.83
2023-04-08T02:40:29.660Z,49.20
2023-04-08T02:42:57.256Z,47.45
2023-04-08T02:45:42.202Z,48.33
2023-04-08T02:48:11.547Z,52.78
2023-04-08T02:50:40.108Z,47.72
2023-04-08T02:53:09.626Z,48.97
2023-04-08T02:55:37.314Z,50.35
2023-04-08T02:58:05.838Z,46.85
2023-04-08T03:00:33.205Z,47.47
2023-04-08T03:03:01.564Z,45.65
2023-04-08T03:05:29.203Z,49.63
2023-04-08T03:07:56.480Z,45.00
2023-04-08T03:10:25.096Z,44.33
2023-04-08T03:12:52.736Z,43.47
2023-04-08T03:15:19.976Z,41.92
2023-04-08T03:17:47.560Z,43.78
2023-04-08T03:20:15.982Z,48.67
2023-04-08T03:22:43.515Z,45.70
2023-04-08T03:25:11.977Z,49.88
2023-04-08T03:27:39.519Z,49.72
2023-04-08T03:30:13.113Z,53.50
2023-04-08T03:32:42.613Z,53.90
2023-04-08T03:35:16.275Z,54.13
2023-04-08T03:37:43.636Z,47.13
2023-04-08T03:40:11.662Z,45.65
2023-04-08T03:42:39.133Z,46.72
2023-04-08T03:45:06.971Z,43.47
2023-04-08T03:47:34.672Z,47.35
2023-04-08T03:50:04.134Z,49.03
2023-04-08T03:52:31.426Z,47.05
2023-04-08T03:54:58.957Z,48.22
2023-04-08T03:57:26.137Z,49.15
2023-04-08T03:59:56.947Z,49.75
2023-04-08T04:02:26.218Z,47.38
2023-04-08T04:04:53.562Z,42.72
2023-04-08T04:07:20.887Z,43.60
2023-04-08T04:09:54.370Z,39.88
2023-04-08T04:14:49.065Z,35.88
2023-04-08T04:17:16.684Z,34.10
2023-04-08T04:19:43.888Z,33.35
2023-04-08T04:22:11.011Z,33.35
2023-04-08T04:24:39.440Z,37.15
2023-04-08T04:27:06.802Z,37.47
2023-04-08T04:29:34.258Z,38.38
2023-04-08T04:32:01.669Z,33.80
2023-04-08T04:34:29.221Z,39.53
2023-04-08T04:36:56.939Z,37.13
2023-04-08T04:39:24.128Z,35.75
2023-04-08T04:41:51.926Z,39.58
2023-04-08T04:44:20.041Z,39.17
2023-04-08T04:46:47.598Z,37.67
2023-04-08T04:49:14.938Z,38.63
2023-04-08T04:51:42.665Z,38.55
2023-04-08T04:54:09.793Z,34.47
2023-04-08T04:56:37.343Z,40.25
2023-04-08T04:59:05.867Z,35.75
2023-04-08T05:01:35.749Z,41.10
2023-04-08T05:04:03.241Z,38.72
2023-04-08T05:06:31.915Z,39.72
2023-04-08T05:09:01.450Z,40.42
2023-04-08T05:11:29.781Z,40.70
2023-04-08T05:13:57.176Z,41.22
2023-04-08T05:16:24.775Z,41.25
2023-04-08T05:18:53.254Z,41.83
2023-04-08T05:21:21.872Z,37.22
2023-04-08T05:23:53.172Z,37.63
2023-04-08T05:26:22.156Z,36.08
2023-04-08T05:28:51.699Z,36.10
2023-04-08T05:31:31.495Z,35.45
2023-04-08T05:33:58.899Z,40.40
2023-04-08T05:36:27.634Z,38.38
2023-04-08T05:38:54.853Z,39.88
2023-04-08T05:41:24.304Z,36.38
2023-04-08T05:43:51.841Z,34.95
2023-04-08T05:46:19.301Z,37.42
2023-04-08T05:48:47.145Z,39.13
2023-04-08T05:51:18.350Z,36.00
2023-04-08T05:53:48.328Z,39.45
2023-04-08T05:56:22.126Z,37.92
2023-04-08T05:58:50.914Z,37.33
2023-04-08T06:01:18.451Z,36.13
2023-04-08T06:03:45.909Z,35.08
2023-04-08T06:06:13.389Z,36.35
2023-04-08T06:08:41.501Z,35.45
2023-04-08T06:11:08.851Z,40.25
2023-04-08T06:13:38.678Z,39.83
2023-04-08T06:16:15.231Z,39.95
2023-04-08T06:18:42.565Z,40.92
2023-04-08T06:21:12.029Z,41.63
2023-04-08T06:23:39.378Z,39.20
2023-04-08T06:26:06.715Z,42.03
2023-04-08T06:28:33.846Z,43.35
2023-04-08T06:31:01.322Z,40.45
2023-04-08T06:33:28.753Z,43.50
2023-04-08T06:36:04.397Z,44.00
2023-04-08T06:38:35.116Z,42.88
2023-04-08T06:41:06.831Z,38.95
2023-04-08T06:43:40.726Z,34.75
2023-04-08T06:46:10.065Z,34.25
2023-04-08T06:48:38.101Z,35.33
2023-04-08T06:51:08.326Z,33.58
2023-04-08T06:53:35.686Z,31.08
2023-04-08T06:56:03.073Z,36.78
2023-04-08T06:58:30.431Z,36.78
2023-04-08T07:01:01.654Z,33.42
2023-04-08T07:03:29.610Z,35.47
2023-04-08T07:05:57.104Z,33.80
2023-04-08T07:08:24.737Z,33.42
2023-04-08T07:10:53.381Z,33.42
2023-04-08T07:13:21.723Z,35.78
2023-04-08T07:15:49.004Z,32.35
2023-04-08T07:18:18.297Z,30.77
2023-04-08T07:20:54.102Z,31.15
2023-04-08T07:23:21.805Z,35.53
2023-04-08T07:25:49.431Z,28.23
2023-04-08T07:28:17.904Z,31.58
2023-04-08T07:30:45.424Z,30.30
2023-04-08T07:33:13.364Z,35.63
2023-04-08T07:35:42.356Z,29.27
2023-04-08T07:38:11.826Z,29.77
2023-04-08T07:40:40.058Z,33.33
2023-04-08T07:43:09.803Z,26.15
2023-04-08T07:45:36.821Z,27.90
2023-04-08T07:48:04.603Z,25.17
2023-04-08T07:50:32.016Z,25.23
2023-04-08T07:52:59.293Z,27.65
2023-04-08T07:55:26.916Z,30.90
2023-04-08T07:57:59.929Z,30.23
2023-04-08T08:00:28.220Z,31.73
2023-04-08T08:02:55.490Z,30.52
2023-04-08T08:05:22.867Z,31.13
2023-04-08T08:07:50.779Z,23.58
2023-04-08T08:10:19.318Z,26.98
2023-04-08T08:12:47.808Z,24.95
2023-04-08T08:15:15.483Z,26.92
2023-04-08T08:17:42.717Z,25.48
2023-04-08T08:20:10.788Z,24.45
2023-04-08T08:22:50.851Z,23.48
2023-04-08T08:25:26.237Z,24.33
2023-04-08T08:27:53.652Z,23.17
2023-04-08T08:30:22.599Z,25.10
2023-04-08T08:32:52.570Z,23.55
2023-04-08T08:35:21.183Z,25.90
2023-04-08T08:37:48.691Z,24.17
2023-04-08T08:40:17.064Z,26.27
2023-04-08T08:42:52.650Z,24.52
2023-04-08T08:45:22.721Z,23.83
2023-04-08T08:47:52.276Z,20.17
2023-04-08T08:50:19.978Z,20.58
2023-04-08T08:52:53.546Z,22.23
2023-04-08T08:58:14.748Z,20.70
2023-04-08T09:00:47.836Z,21.70
2023-04-08T09:03:24.998Z,22.15
2023-04-08T09:05:55.173Z,26.08
2023-04-08T09:08:29.719Z,27.63
2023-04-08T09:11:11.848Z,22.42
2023-04-08T09:13:51.685Z,20.50
2023-04-08T09:16:23.548Z,20.83
2023-04-08T09:18:51.000Z,23.95
2023-04-08T09:21:22.717Z,19.90
2023-04-08T09:23:52.187Z,18.38
2023-04-08T09:26:25.026Z,21.38
2023-04-08T09:29:24.915Z,21.73
2023-04-08T09:32:00.335Z,18.63
2023-04-08T09:34:29.843Z,18.67
2023-04-08T09:36:57.250Z,19.50
2023-04-08T09:39:24.823Z,21.33
2023-04-08T09:41:53.136Z,23.63
2023-04-08T09:44:22.284Z,24.55
2023-04-08T09:46:52.915Z,25.08
2023-04-08T09:49:29.093Z,23.08
2023-04-08T09:52:12.110Z,21.05
2023-04-08T09:55:13.818Z,18.02
2023-04-08T09:57:47.747Z,22.52
2023-04-08T10:00:16.996Z,20.10
2023-04-08T10:03:12.460Z,19.80
2023-04-08T10:05:44.101Z,18.98
2023-04-08T10:08:11.861Z,19.50
2023-04-08T10:10:41.928Z,18.98
2023-04-08T10:13:09.983Z,27.00
2023-04-08T10:15:39.818Z,26.90
2023-04-08T10:18:09.714Z,18.45
2023-04-08T10:20:38.258Z,17.27
2023-04-08T10:23:17.215Z,17.85
2023-04-08T10:25:49.377Z,20.05
2023-04-08T10:28:19.552Z,20.13
2023-04-08T10:30:53.412Z,23.48
2023-04-08T10:33:36.072Z,18.08
2023-04-08T10:36:15.640Z,21.98
2023-04-08T10:38:44.095Z,15.45
2023-04-08T10:41:14.574Z,15.27
2023-04-08T10:43:42.064Z,16.63
2023-04-08T10:46:12.156Z,18.70
2023-04-08T10:48:39.777Z,15.82
2023-04-08T10:51:07.104Z,16.73
2023-04-08T10:53:36.408Z,15.38
2023-04-08T10:56:18.125Z,16.52
2023-04-08T10:58:50.247Z,17.13
2023-04-08T11:01:18.067Z,24.02
2023-04-08T11:03:45.734Z,22.10
2023-04-08T11:06:13.406Z,17.83
2023-04-08T11:08:41.889Z,17.20
2023-04-08T11:11:11.896Z,22.45
2023-04-08T11:13:52.194Z,18.33
2023-04-08T11:16:23.327Z,20.40
2023-04-08T11:18:51.832Z,21.38
2023-04-08T11:21:22.532Z,19.27
2023-04-08T11:23:55.073Z,18.55
2023-04-08T11:26:26.006Z,14.65
2023-04-08T11:28:56.481Z,18.63
2023-04-08T11:31:24.976Z,13.32
2023-04-08T11:33:54.850Z,13.35
2023-04-08T11:36:22.657Z,13.38
2023-04-08T11:38:50.370Z,14.38
2023-04-08T11:41:24.935Z,15.45
2023-04-08T11:43:57.392Z,13.23
2023-04-08T11:46:25.224Z,11.13
2023-04-08T11:49:08.237Z,13.50
2023-04-08T11:51:56.686Z,15.35
2023-04-08T11:54:31.490Z,10.82
2023-04-08T11:56:59.791Z,10.05
2023-04-08T11:59:29.326Z,11.77
2023-04-08T12:01:57.695Z,10.60
2023-04-08T12:04:25.603Z,15.60
2023-04-08T12:06:53.664Z,12.90
2023-04-08T12:09:20.809Z,14.07
2023-04-08T12:11:53.236Z,16.77
2023-04-08T12:14:22.329Z,18.27
2023-04-08T12:16:49.626Z,19.05
2023-04-08T12:19:17.113Z,32.38
2023-04-08T12:21:44.556Z,14.05
2023-04-08T12:24:12.075Z,17.35
2023-04-08T12:26:39.572Z,15.30
2023-04-08T12:29:09.667Z,25.92
2023-04-08T12:31:39.055Z,18.40
2023-04-08T12:34:07.250Z,29.98
2023-04-08T12:36:34.522Z,22.90
2023-04-08T12:39:02.965Z,27.05
2023-04-08T12:41:30.444Z,19.50
2023-04-08T12:43:58.849Z,19.20
2023-04-08T12:46:26.436Z,20.73
2023-04-08T12:49:04.693Z,14.52
2023-04-08T12:51:32.711Z,13.95
